This is the latest recevied weather packets stored in our database for station/object R1ZCU-14. If no packets are shown the sender has not sent any weather packets the latest 10 day(s).
| Time | Temp. | Humidity | Pressure | Rain* | Wind** | Luminosity | Snow |
|---|---|---|---|---|---|---|---|
| 1777878087 | 15° C | 21% | 995.3 hPa | - | - | - | - |
| 1777877486 | 13.89° C | 21% | 995.3 hPa | - | - | - | - |
| 1777876886 | 13.33° C | 21% | 995.3 hPa | - | - | - | - |
| 1777876285 | 14.44° C | 22% | 995.3 hPa | - | - | - | - |
| 1777875685 | 13.89° C | 21% | 995.4 hPa | - | - | - | - |
| 1777875084 | 15.56° C | 20% | 995.2 hPa | - | - | - | - |
| 1777874484 | 15° C | 20% | 995.3 hPa | - | - | - | - |
| 1777873883 | 15° C | 20% | 995.3 hPa | - | - | - | - |
| 1777873283 | 15.56° C | 19% | 995.1 hPa | - | - | - | - |
| 1777872682 | 15° C | 20% | 995.1 hPa | - | - | - | - |
| 1777872082 | 13.89° C | 21% | 995.1 hPa | - | - | - | - |
| 1777871481 | 12.78° C | 24% | 995.1 hPa | - | - | - | - |
| 1777870881 | 12.22° C | 25% | 995.1 hPa | - | - | - | - |
| 1777870280 | 11.67° C | 25% | 995.2 hPa | - | - | - | - |
| 1777869680 | 11.67° C | 27% | 995.1 hPa | - | - | - | - |
| 1777869079 | 10.56° C | 29% | 995.1 hPa | - | - | - | - |
| 1777868479 | 9.44° C | 32% | 995.2 hPa | - | - | - | - |
| 1777867879 | 8.89° C | 35% | 995.1 hPa | - | - | - | - |
| 1777867278 | 8.89° C | 36% | 995.2 hPa | - | - | - | - |
| 1777866677 | 8.89° C | 36% | 995.2 hPa | - | - | - | - |
| 1777866077 | 8.89° C | 36% | 995.2 hPa | - | - | - | - |
| 1777865477 | 8.33° C | 37% | 995.2 hPa | - | - | - | - |
| 1777864876 | 7.78° C | 39% | 995.3 hPa | - | - | - | - |
| 1777864276 | 8.33° C | 38% | 995.2 hPa | - | - | - | - |
| 1777863675 | 8.33° C | 40% | 995.2 hPa | - | - | - | - |
* Rain since midnight (hover to see other rain measurements)
** Current wind speed in m/s (hover to see current wind gust speed)